Terminal Aerodrome Forecast
Issued by NWS Upton, NY

Home | Current Version | Previous Version | Text Only | Print | Product List | Glossary On
Versions: 1 2 3 4 5 6 7 8 9 10 11 12 13 14 15 16 17 18 19 20 21 22 23 24 25 26 27 28 29
000
FTUS41 KOKX 281947 AAA
TAFEWR
TAF AMD
KEWR 281947Z 2820/2924 15007KT P6SM SCT070
     FM290100 21005KT P6SM FEW060
     FM290300 25004KT P6SM SCT080
     FM291100 VRB03KT P6SM SCT080 SCT250
     FM291500 18007KT P6SM FEW050 SCT250
     FM291700 20008KT P6SM SCT050 SCT250
     FM292000 21010KT P6SM BKN050=

USA.gov is the U.S. government's official web portal to all federal, state and local government web resources and services.